Aviation Digital Data Service (ADDS)

Output produced by METARs form (1524 UTC 17 November 2019)
found at http://aviationweather.gov/metar/data/
 
Forecast for: EPDA (DARTOWEK NAVAL , PL)
Text: TAF EPDA 171400Z 1715/1724 09008KT CAVOK
Forecast period: 1500 UTC 17 November 2019 to 0000 UTC 18 November 2019
Forecast type: FROM: standard forecast or significant change
Winds: from the E (90 degrees) at 9 MPH (8 knots; 4.1 m/s)
Visibility: 6 or more miles 10+ km)
Ceiling: unknown
Clouds: missing
Weather: NSW  (no significant weather)
Text: TEMPO 1719/1724 5000 BR SCT005
Forecast period: 1900 UTC 17 November 2019 to 0000 UTC 18 November 2019
Forecast type: TEMPORARY: The following changes expected for less than half the time period
Visibility: 3 miles (5 km)
Ceiling: at least 12,000 feet AGL
Clouds: scattered clouds at 500 feet AGL
Weather: BR  (mist)
Text: PROB30
Forecast period: 2000 UTC 17 November 2019 to 0000 UTC 18 November 2019
Forecast type: TEMPORARY: The following changes expected for less than half the time period
Visibility: 1.24 miles (2.00 km)
Ceiling: 500 feet AGL
Clouds: broken clouds at 500 feet AGL
Weather: BR  (mist)